createdAt,value
2017-10-12T00:00:52.128Z,94.65
2017-10-12T00:02:04.682Z,95.22
2017-10-12T00:03:17.250Z,94.46
2017-10-12T00:04:29.498Z,94.79
2017-10-12T00:05:41.741Z,95.22
2017-10-12T00:06:53.987Z,95.84
2017-10-12T00:08:06.239Z,95.89
2017-10-12T00:09:18.478Z,94.51
2017-10-12T00:10:30.724Z,96.03
2017-10-12T00:11:42.637Z,94.79
2017-10-12T00:12:55.221Z,94.12
2017-10-12T00:14:07.787Z,94.6
2017-10-12T00:15:20.032Z,94.7
2017-10-12T00:16:31.979Z,94.22
2017-10-12T00:17:44.574Z,94.7
2017-10-12T00:18:57.145Z,94.89
2017-10-12T00:20:09.415Z,94.98
2017-10-12T00:21:21.984Z,96.61
2017-10-12T00:22:34.561Z,96.32
2017-10-12T00:23:47.103Z,96.8
2017-10-12T00:24:59.672Z,94.6
2017-10-12T00:26:12.235Z,94.98
2017-10-12T00:27:24.789Z,95.41
2017-10-12T00:28:37.334Z,94.51
2017-10-12T00:29:49.630Z,94.36
2017-10-12T00:31:01.875Z,94.89
2017-10-12T00:32:14.120Z,93.93
2017-10-12T00:33:26.941Z,94.17
2017-10-12T00:34:39.513Z,94.51
2017-10-12T00:35:52.081Z,94.6
2017-10-12T00:37:04.346Z,93.84
2017-10-12T00:38:16.900Z,95.56
2017-10-12T00:39:28.819Z,95.08
2017-10-12T00:40:41.407Z,94.22
2017-10-12T00:41:53.661Z,94.6
2017-10-12T00:43:05.907Z,95.98
2017-10-12T00:44:18.720Z,95.03
2017-10-12T00:45:30.975Z,95.12
2017-10-12T00:46:43.245Z,94.51
2017-10-12T00:47:55.490Z,93.88
2017-10-12T00:49:07.739Z,95.65
2017-10-12T00:50:20.306Z,96.17
2017-10-12T00:51:32.550Z,95.03
2017-10-12T00:52:44.821Z,94.51
2017-10-12T00:53:57.393Z,97.13
2017-10-12T00:55:09.640Z,96.17
2017-10-12T00:56:22.212Z,95.75
2017-10-12T00:57:34.473Z,95.03
2017-10-12T00:58:47.050Z,94.7
2017-10-12T00:59:59.296Z,94.51
2017-10-12T01:01:11.554Z,94.41
2017-10-12T01:02:24.112Z,94.7
2017-10-12T01:03:36.683Z,96.13
2017-10-12T01:04:49.254Z,95.98
2017-10-12T01:06:01.200Z,95.32
2017-10-12T01:07:13.743Z,95.36
2017-10-12T01:08:25.994Z,95.56
2017-10-12T01:09:38.264Z,96.13
2017-10-12T01:10:50.831Z,95.56
2017-10-12T01:12:03.077Z,95.22
2017-10-12T01:13:15.647Z,95.27
2017-10-12T01:14:28.219Z,95.75
2017-10-12T01:15:40.788Z,95.46
2017-10-12T01:16:53.353Z,95.56
2017-10-12T01:18:05.281Z,95.17
2017-10-12T01:19:17.532Z,96.13
2017-10-12T01:20:30.095Z,95.27
2017-10-12T01:21:42.342Z,96.13
2017-10-12T01:22:54.914Z,95.94
2017-10-12T01:24:07.485Z,95.65
2017-10-12T01:25:20.055Z,95.56
2017-10-12T01:26:32.300Z,95.56
2017-10-12T01:27:44.874Z,95.75
2017-10-12T01:28:57.116Z,97.08
2017-10-12T01:30:09.686Z,96.8
2017-10-12T01:31:22.257Z,96.51
2017-10-12T01:32:34.179Z,96.03
2017-10-12T01:33:46.122Z,96.13
2017-10-12T01:34:58.698Z,95.75
2017-10-12T01:36:11.264Z,95.75
2017-10-12T01:37:23.510Z,96.13
2017-10-12T01:38:35.457Z,95.51
2017-10-12T01:39:47.702Z,95.51
2017-10-12T01:40:59.647Z,96.75
2017-10-12T01:42:11.893Z,95.51
2017-10-12T01:43:24.463Z,95.03
2017-10-12T01:44:36.727Z,94.46
2017-10-12T01:45:48.959Z,94.46
2017-10-12T01:47:01.528Z,94.74
2017-10-12T01:48:13.470Z,95.61
2017-10-12T01:49:25.734Z,95.12
2017-10-12T01:50:38.304Z,94.46
2017-10-12T01:51:50.858Z,94.07
2017-10-12T01:53:03.108Z,94.46
2017-10-12T01:54:15.028Z,94.46
2017-10-12T01:55:27.295Z,94.07
2017-10-12T01:56:39.540Z,94.36
2017-10-12T01:57:52.111Z,95.12
2017-10-12T01:59:04.662Z,93.6
2017-10-12T02:00:17.156Z,93.6
2017-10-12T02:01:29.723Z,93.02
2017-10-12T02:02:42.299Z,93.46
2017-10-12T02:03:54.865Z,93.36
2017-10-12T02:05:07.460Z,93.08
2017-10-12T02:06:20.008Z,93.27
2017-10-12T02:07:32.578Z,92.32
2017-10-12T02:08:45.148Z,92.5
2017-10-12T02:09:57.370Z,92.03
2017-10-12T02:11:09.943Z,92.22
2017-10-12T02:12:22.207Z,92.03
2017-10-12T02:13:34.456Z,92.12
2017-10-12T02:14:47.026Z,92.03
2017-10-12T02:15:59.594Z,91.27
2017-10-12T02:17:11.870Z,91.07
2017-10-12T02:18:24.412Z,91.17
2017-10-12T02:19:36.008Z,91.27
2017-10-12T02:20:48.254Z,91.46
2017-10-12T02:22:00.502Z,90.98
2017-10-12T02:23:13.069Z,91.27
2017-10-12T02:24:25.641Z,90.98
2017-10-12T02:25:37.887Z,90.98
2017-10-12T02:26:50.131Z,91.17
2017-10-12T02:28:02.397Z,90.69
2017-10-12T02:29:14.973Z,90.5
2017-10-12T02:30:27.243Z,90.93
2017-10-12T02:31:39.164Z,90.59
2017-10-12T02:32:51.727Z,90.84
2017-10-12T02:34:04.282Z,90.69
2017-10-12T02:35:16.852Z,90.36
2017-10-12T02:36:29.097Z,89.89
2017-10-12T02:37:41.668Z,90.5
2017-10-12T02:38:53.912Z,89.5
2017-10-12T02:40:06.175Z,89.98
2017-10-12T02:41:18.756Z,89.22
2017-10-12T02:42:31.017Z,89.5
2017-10-12T02:43:44.620Z,89.12
2017-10-12T02:44:56.883Z,89.4
2017-10-12T02:46:09.140Z,88.74
2017-10-12T02:47:21.682Z,88.64
2017-10-12T02:48:33.953Z,88.93
2017-10-12T02:49:46.524Z,88.74
2017-10-12T02:50:58.773Z,88.93
2017-10-12T02:52:11.041Z,88.36
2017-10-12T02:53:23.612Z,88.26
2017-10-12T02:54:35.535Z,88.45
2017-10-12T02:55:47.801Z,88.55
2017-10-12T02:57:00.073Z,88.07
2017-10-12T02:58:12.642Z,88.17
2017-10-12T02:59:25.214Z,88.36
2017-10-12T03:00:37.785Z,87.98
2017-10-12T03:01:50.031Z,87.6
2017-10-12T03:03:02.602Z,87.5
2017-10-12T03:04:14.846Z,87.6
2017-10-12T03:05:27.084Z,88.07
2017-10-12T03:06:39.639Z,87.6
2017-10-12T03:07:52.203Z,87.4
2017-10-12T03:09:04.754Z,87.31
2017-10-12T03:10:16.675Z,87.98
2017-10-12T03:11:28.595Z,87.31
2017-10-12T03:12:40.522Z,87.12
2017-10-12T03:13:53.086Z,87.31
2017-10-12T03:15:05.635Z,87.12
2017-10-12T03:16:17.877Z,87.21
2017-10-12T03:17:29.473Z,87.31
2017-10-12T03:18:41.745Z,87.12
2017-10-12T03:19:53.666Z,87.31
2017-10-12T03:21:05.586Z,87.02
2017-10-12T03:22:18.173Z,87.31
2017-10-12T03:23:30.102Z,86.55
2017-10-12T03:24:42.064Z,87.02
2017-10-12T03:25:54.318Z,87.12
2017-10-12T03:27:06.564Z,87.4
2017-10-12T03:28:19.110Z,87.31
2017-10-12T03:29:31.697Z,87.12
2017-10-12T03:30:44.253Z,87.12
2017-10-12T03:31:56.498Z,86.55
2017-10-12T03:33:09.068Z,86.45
2017-10-12T03:34:21.313Z,86.55
2017-10-12T03:35:33.234Z,85.97
2017-10-12T03:36:45.532Z,86.36
2017-10-12T03:37:58.400Z,86.16
2017-10-12T03:39:10.970Z,86.36
2017-10-12T03:40:23.542Z,86.07
2017-10-12T03:41:36.111Z,85.88
2017-10-12T03:42:48.358Z,85.69
2017-10-12T03:44:00.929Z,86.07
2017-10-12T03:45:12.548Z,85.6
2017-10-12T03:46:25.120Z,85.88
2017-10-12T03:47:37.364Z,86.36
2017-10-12T03:48:50.187Z,86.26
2017-10-12T03:50:02.124Z,86.21
2017-10-12T03:51:14.677Z,86.02
2017-10-12T03:52:26.922Z,87.16
2017-10-12T03:53:39.494Z,87.16
2017-10-12T03:54:52.067Z,87.35
2017-10-12T03:56:04.012Z,87.07
2017-10-12T03:57:16.255Z,88.12
2017-10-12T03:58:28.519Z,87.93
2017-10-12T03:59:40.753Z,88.21
2017-10-12T04:00:53.009Z,87.93
2017-10-12T04:02:05.263Z,89.45
2017-10-12T04:03:17.841Z,89.45
2017-10-12T04:04:30.405Z,89.07
2017-10-12T04:05:42.650Z,88.69
2017-10-12T04:06:55.220Z,89.88
2017-10-12T04:08:07.491Z,88.92
2017-10-12T04:09:19.738Z,88.83
2017-10-12T04:10:31.886Z,90.83
2017-10-12T04:11:43.802Z,90.55
2017-10-12T04:12:55.724Z,89.78
2017-10-12T04:14:08.274Z,89.31
2017-10-12T04:15:20.841Z,92.17
2017-10-12T04:16:33.084Z,91.02
2017-10-12T04:17:45.007Z,91.31
2017-10-12T04:18:57.253Z,91.98
2017-10-12T04:20:09.821Z,92.07
2017-10-12T04:21:22.002Z,91.98
2017-10-12T04:22:34.243Z,93.02
2017-10-12T04:23:46.809Z,92.17
2017-10-12T04:24:58.422Z,91.98
2017-10-12T04:26:10.677Z,92.02
2017-10-12T04:27:21.971Z,92.12
2017-10-12T04:28:34.556Z,94.31
2017-10-12T04:29:46.830Z,93.07
2017-10-12T04:30:59.408Z,93.84
2017-10-12T04:32:11.904Z,93.55
2017-10-12T04:33:24.152Z,93.55
2017-10-12T04:34:36.074Z,94.31
2017-10-12T04:35:48.658Z,94.22
2017-10-12T04:37:00.603Z,94.6
2017-10-12T04:38:12.857Z,94.79
2017-10-12T04:39:25.428Z,95.36
2017-10-12T04:40:37.689Z,95.46
2017-10-12T04:41:50.269Z,95.08
2017-10-12T04:43:03.115Z,94.7
2017-10-12T04:44:15.690Z,93.36
2017-10-12T04:45:27.635Z,93.65
2017-10-12T04:46:39.552Z,92.21
2017-10-12T04:47:51.798Z,92.21
2017-10-12T04:49:04.062Z,92.31
2017-10-12T04:50:16.638Z,92.12
2017-10-12T04:51:28.883Z,91.16
2017-10-12T04:52:41.455Z,90.97
2017-10-12T04:53:54.050Z,90.59
2017-10-12T04:55:06.621Z,90.97
2017-10-12T04:56:19.192Z,90.88
2017-10-12T04:57:31.437Z,90.02
2017-10-12T04:58:44.008Z,91.26
2017-10-12T04:59:56.255Z,91.07
2017-10-12T05:01:08.500Z,90.02
2017-10-12T05:02:20.762Z,89.45
2017-10-12T05:03:33.341Z,89.73
2017-10-12T05:04:45.536Z,89.92
2017-10-12T05:05:58.107Z,90.11
2017-10-12T05:07:10.677Z,89.73
2017-10-12T05:08:21.974Z,88.97
2017-10-12T05:09:34.222Z,88.78
2017-10-12T05:10:46.465Z,88.68
2017-10-12T05:11:59.035Z,88.87
2017-10-12T05:13:11.605Z,89.06
2017-10-12T05:14:23.527Z,88.87
2017-10-12T05:15:36.102Z,89.64
2017-10-12T05:16:48.669Z,89.64
2017-10-12T05:18:00.914Z,88.87
2017-10-12T05:19:13.163Z,89.45
2017-10-12T05:20:25.422Z,89.64
2017-10-12T05:21:36.400Z,89.64
2017-10-12T05:22:48.321Z,89.64
2017-10-12T05:24:00.566Z,90.78
2017-10-12T05:25:12.813Z,90.59
2017-10-12T05:26:25.308Z,90.78
2017-10-12T05:27:37.878Z,89.73
2017-10-12T05:28:50.124Z,89.64
2017-10-12T05:30:02.669Z,89.92
2017-10-12T05:31:14.919Z,90.5
2017-10-12T05:32:27.160Z,90.69
2017-10-12T05:33:39.107Z,90.31
2017-10-12T05:34:51.027Z,90.21
2017-10-12T05:36:03.631Z,91.36
2017-10-12T05:37:16.495Z,90.78
2017-10-12T05:38:28.431Z,91.07
2017-10-12T05:39:40.692Z,91.07
2017-10-12T05:40:52.632Z,91.45
2017-10-12T05:42:05.207Z,90.97
2017-10-12T05:43:17.140Z,91.11
2017-10-12T05:44:29.067Z,91.07
2017-10-12T05:45:41.356Z,92.6
2017-10-12T05:46:53.909Z,93.7
2017-10-12T05:48:06.732Z,92.16
2017-10-12T05:49:19.304Z,92.74
2017-10-12T05:50:31.545Z,92.36
2017-10-12T05:51:44.118Z,92.45
2017-10-12T05:52:56.037Z,92.36
2017-10-12T05:54:08.611Z,93.6
2017-10-12T05:55:20.854Z,93.02
2017-10-12T05:56:33.099Z,93.02
2017-10-12T05:57:44.695Z,93.12
2017-10-12T05:58:57.266Z,92.26
2017-10-12T06:00:09.836Z,93.12
2017-10-12T06:01:22.408Z,93.21
2017-10-12T06:02:34.652Z,93.21
2017-10-12T06:03:46.252Z,93.12
2017-10-12T06:04:58.818Z,93.41
2017-10-12T06:06:11.392Z,92.93
2017-10-12T06:07:23.334Z,91.3
2017-10-12T06:08:35.280Z,91.21
2017-10-12T06:09:47.552Z,89.49
2017-10-12T06:11:00.122Z,88.63
2017-10-12T06:12:12.369Z,88.25
2017-10-12T06:13:24.938Z,87.77
2017-10-12T06:14:37.184Z,87.68
2017-10-12T06:15:49.430Z,86.63
2017-10-12T06:17:01.699Z,87.77
2017-10-12T06:18:13.946Z,86.63
2017-10-12T06:19:26.219Z,86.53
2017-10-12T06:20:38.788Z,86.63
2017-10-12T06:21:51.038Z,87.48
2017-10-12T06:23:03.605Z,87.29
2017-10-12T06:24:15.525Z,87.77
2017-10-12T06:25:28.099Z,86.53
2017-10-12T06:26:40.666Z,86.63
2017-10-12T06:27:52.937Z,86.82
2017-10-12T06:29:05.533Z,87.39
2017-10-12T06:30:17.784Z,87.29
2017-10-12T06:31:30.025Z,86.72
2017-10-12T06:32:42.270Z,86.05
2017-10-12T06:33:53.894Z,86.53
2017-10-12T06:35:06.461Z,86.53
2017-10-12T06:36:18.706Z,85.86
2017-10-12T06:37:31.277Z,85.38
2017-10-12T06:38:43.522Z,86.24
2017-10-12T06:39:55.817Z,86.82
2017-10-12T06:41:08.081Z,86.34
2017-10-12T06:42:20.326Z,87.1
2017-10-12T06:43:32.884Z,87.68
2017-10-12T06:44:45.126Z,87.48
2017-10-12T06:45:57.697Z,86.82
2017-10-12T06:47:09.643Z,87.39
2017-10-12T06:48:21.912Z,89.01
2017-10-12T06:49:34.164Z,87.96
2017-10-12T06:50:46.404Z,88.92
2017-10-12T06:51:58.977Z,88.96
2017-10-12T06:53:11.225Z,88.54
2017-10-12T06:54:23.790Z,88.39
2017-10-12T06:55:36.040Z,88.77
2017-10-12T06:56:48.607Z,89.53
2017-10-12T06:58:00.853Z,89.15
2017-10-12T06:59:13.098Z,89.44
2017-10-12T07:00:25.344Z,88.77
2017-10-12T07:01:37.918Z,88.77
2017-10-12T07:02:50.485Z,88.87
2017-10-12T07:04:02.732Z,88.1
2017-10-12T07:05:14.652Z,88.58
2017-10-12T07:06:26.573Z,88.39
2017-10-12T07:07:39.142Z,88.2
2017-10-12T07:08:51.714Z,90.49
2017-10-12T07:10:03.652Z,88.87
2017-10-12T07:11:15.580Z,90.11
2017-10-12T07:12:27.826Z,90.88
2017-10-12T07:13:40.395Z,90.01
2017-10-12T07:14:52.642Z,89.73
2017-10-12T07:16:04.888Z,90.3
2017-10-12T07:17:17.151Z,90.11
2017-10-12T07:18:29.403Z,90.3
2017-10-12T07:19:41.976Z,88.96
2017-10-12T07:20:53.899Z,88.96
2017-10-12T07:22:06.142Z,88.77
2017-10-12T07:23:18.712Z,88.43
2017-10-12T07:24:30.958Z,87.95
2017-10-12T07:25:43.204Z,87
2017-10-12T07:26:55.773Z,85.94
2017-10-12T07:28:08.353Z,86.52
2017-10-12T07:29:20.914Z,85.85
2017-10-12T07:30:32.853Z,86.23
2017-10-12T07:31:45.407Z,86.14
2017-10-12T07:32:57.652Z,86.04
2017-10-12T07:34:09.601Z,86.23
2017-10-12T07:35:21.843Z,86.33
2017-10-12T07:36:34.088Z,86.71
2017-10-12T07:37:46.659Z,86.8
2017-10-12T07:38:59.229Z,85.94
2017-10-12T07:40:11.805Z,86.8
2017-10-12T07:41:23.736Z,86.23
2017-10-12T07:42:35.997Z,85.47
2017-10-12T07:43:48.237Z,85.47
2017-10-12T07:45:00.158Z,85.28
2017-10-12T07:46:12.731Z,85.94
2017-10-12T07:47:24.974Z,87.38
2017-10-12T07:48:37.244Z,87.09
2017-10-12T07:49:49.816Z,87.19
2017-10-12T07:51:02.403Z,88.15
2017-10-12T07:52:14.657Z,88.34
2017-10-12T07:53:27.245Z,88.81
2017-10-12T07:54:39.474Z,87.57
2017-10-12T07:55:51.744Z,87.29
2017-10-12T07:57:03.689Z,87.48
2017-10-12T07:58:15.886Z,88.05
2017-10-12T07:59:28.449Z,88.72
2017-10-12T08:00:41.025Z,88.86
2017-10-12T08:01:52.646Z,89.24
2017-10-12T08:03:04.895Z,88.76
2017-10-12T08:04:17.465Z,89.05
2017-10-12T08:05:29.726Z,89.91
2017-10-12T08:06:41.978Z,90.3
2017-10-12T08:07:54.553Z,89.62
2017-10-12T08:09:06.496Z,89.62
2017-10-12T08:10:19.070Z,90.48
2017-10-12T08:11:31.636Z,91.63
2017-10-12T08:12:44.210Z,92.49
2017-10-12T08:13:56.456Z,90.96
2017-10-12T08:15:09.052Z,91.01
2017-10-12T08:16:20.970Z,92.06
2017-10-12T08:17:33.540Z,92.16
2017-10-12T08:18:45.806Z,92.35
2017-10-12T08:19:58.057Z,93.98
2017-10-12T08:21:10.304Z,95.51
2017-10-12T08:22:22.873Z,96.47
2017-10-12T08:23:35.444Z,94.74
2017-10-12T08:24:48.015Z,95.56
2017-10-12T08:26:00.586Z,95.41
2017-10-12T08:27:12.505Z,96.8
2017-10-12T08:28:25.101Z,97.85
2017-10-12T08:29:37.365Z,98.09
2017-10-12T08:30:49.935Z,98.66
2017-10-12T08:32:02.514Z,98.57
2017-10-12T08:33:14.435Z,98.57
2017-10-12T08:34:26.696Z,99.24
2017-10-12T08:35:38.951Z,98.76
2017-10-12T08:36:51.220Z,98
2017-10-12T08:38:03.466Z,98.95
2017-10-12T08:39:15.413Z,99.05
2017-10-12T08:40:28.007Z,99.33
2017-10-12T08:41:40.253Z,99.81
2017-10-12T08:42:52.173Z,99.77
2017-10-12T08:44:04.413Z,99.43
2017-10-12T08:45:16.342Z,99.99
2017-10-12T08:46:28.910Z,99.99
2017-10-12T08:47:41.482Z,99.87
2017-10-12T08:48:53.406Z,99.99
2017-10-12T08:50:05.990Z,99.99
2017-10-12T08:51:18.260Z,99.99
2017-10-12T08:52:30.212Z,99.99
2017-10-12T08:53:42.811Z,99.99
2017-10-12T08:54:55.375Z,99.99
2017-10-12T08:56:07.625Z,99.99
2017-10-12T08:57:19.874Z,99.99
2017-10-12T08:58:32.691Z,99.99
2017-10-12T08:59:44.962Z,99.99
2017-10-12T09:00:57.209Z,99.99
2017-10-12T09:02:09.147Z,99.99
2017-10-12T09:03:21.075Z,99.99
2017-10-12T09:04:33.324Z,99.99
2017-10-12T09:05:45.252Z,99.99
2017-10-12T09:06:57.837Z,99.99
2017-10-12T09:08:10.425Z,99.99
2017-10-12T09:09:22.678Z,99.99
2017-10-12T09:10:34.926Z,99.99
2017-10-12T09:11:47.495Z,99.99
2017-10-12T09:12:59.445Z,99.99
2017-10-12T09:14:12.011Z,99.99
2017-10-12T09:15:24.257Z,99.99
2017-10-12T09:16:36.827Z,99.99
2017-10-12T09:17:49.072Z,99.99
2017-10-12T09:19:01.019Z,99.99
2017-10-12T09:20:13.593Z,99.99
2017-10-12T09:21:25.556Z,99.99
2017-10-12T09:22:38.133Z,99.99
2017-10-12T09:23:50.394Z,99.99
2017-10-12T09:25:02.950Z,99.99
2017-10-12T09:26:15.518Z,99.99
2017-10-12T09:27:27.787Z,99.99
2017-10-12T09:28:40.359Z,99.99
2017-10-12T09:29:52.606Z,99.99
2017-10-12T09:31:05.176Z,99.99
2017-10-12T09:32:17.120Z,99.99
2017-10-12T09:33:29.692Z,99.99
2017-10-12T09:34:42.283Z,99.99
2017-10-12T09:35:54.858Z,99.99
2017-10-12T09:37:06.779Z,99.99
2017-10-12T09:38:18.726Z,99.99
2017-10-12T09:39:30.662Z,99.99
2017-10-12T09:40:43.216Z,99.99
2017-10-12T09:41:55.798Z,99.99
2017-10-12T09:43:07.082Z,99.99
2017-10-12T09:44:19.352Z,99.99
2017-10-12T09:45:31.275Z,99.99
2017-10-12T09:46:43.885Z,99.99
2017-10-12T09:47:55.839Z,99.99
2017-10-12T09:49:08.087Z,99.99
2017-10-12T09:50:20.332Z,99.99
2017-10-12T09:51:32.919Z,99.99
2017-10-12T09:52:44.851Z,99.99
2017-10-12T09:53:57.420Z,99.99
2017-10-12T09:55:09.989Z,99.99
2017-10-12T09:56:21.911Z,99.99
2017-10-12T09:57:34.429Z,99.99
2017-10-12T09:58:47.005Z,99.99
2017-10-12T09:59:58.945Z,99.99
2017-10-12T10:01:10.567Z,99.99
2017-10-12T10:02:22.838Z,99.99
2017-10-12T10:03:35.082Z,99.99
2017-10-12T10:04:47.329Z,99.99
2017-10-12T10:05:59.599Z,99.99
2017-10-12T10:07:11.863Z,99.99
2017-10-12T10:08:24.116Z,99.99
2017-10-12T10:09:36.686Z,99.99
2017-10-12T10:10:49.257Z,99.99
2017-10-12T10:12:01.202Z,99.99
2017-10-12T10:13:13.773Z,99.99
2017-10-12T10:14:26.344Z,99.71
2017-10-12T10:15:38.595Z,99.9
2017-10-12T10:16:50.852Z,99.62
2017-10-12T10:18:03.106Z,98.95
2017-10-12T10:19:15.926Z,99.33
2017-10-12T10:20:28.496Z,98.28
2017-10-12T10:21:41.072Z,98.33
2017-10-12T10:22:53.315Z,97.56
2017-10-12T10:24:05.884Z,97.61
2017-10-12T10:25:18.154Z,97.71
2017-10-12T10:26:30.751Z,98.09
2017-10-12T10:27:42.675Z,97.42
2017-10-12T10:28:55.242Z,97.61
2017-10-12T10:30:07.831Z,99.52
2017-10-12T10:31:20.408Z,99.81
2017-10-12T10:32:32.657Z,99.99
2017-10-12T10:33:45.224Z,99.99
2017-10-12T10:34:57.170Z,99.99
2017-10-12T10:36:09.415Z,99.99
2017-10-12T10:37:22.011Z,99.99
2017-10-12T10:38:34.582Z,99.99
2017-10-12T10:39:47.153Z,99.99
2017-10-12T10:40:59.398Z,99.99
2017-10-12T10:42:11.344Z,99.99
2017-10-12T10:43:23.614Z,99.99
2017-10-12T10:44:36.185Z,99.99
2017-10-12T10:45:48.448Z,99.99
2017-10-12T10:47:01.002Z,99.99
2017-10-12T10:48:12.614Z,99.99
2017-10-12T10:49:24.849Z,99.99
2017-10-12T10:50:37.091Z,99.99
2017-10-12T10:51:49.651Z,99.99
2017-10-12T10:53:01.254Z,99.99
2017-10-12T10:54:13.829Z,99.99
2017-10-12T10:55:26.114Z,99.99
2017-10-12T10:56:38.383Z,99.99
2017-10-12T10:57:50.311Z,99.99
2017-10-12T10:59:02.883Z,99.99
2017-10-12T11:00:15.454Z,99.99
2017-10-12T11:01:28.079Z,99.99
2017-10-12T11:02:40.595Z,99.99
2017-10-12T11:03:52.857Z,99.99
2017-10-12T11:05:05.113Z,99.99
2017-10-12T11:06:17.711Z,99.99
2017-10-12T11:07:30.277Z,99.99
2017-10-12T11:08:42.847Z,99.99
2017-10-12T11:09:54.794Z,99.99
2017-10-12T11:11:07.394Z,99.99
2017-10-12T11:12:19.634Z,99.99
2017-10-12T11:13:32.206Z,99.99
2017-10-12T11:14:44.776Z,99.99
2017-10-12T11:15:57.039Z,99.99
2017-10-12T11:17:08.968Z,99.99
2017-10-12T11:18:20.905Z,99.99
2017-10-12T11:19:33.460Z,99.99
2017-10-12T11:20:45.704Z,99.99
2017-10-12T11:21:57.951Z,99.99
2017-10-12T11:23:10.196Z,99.99
2017-10-12T11:24:22.118Z,99.99
2017-10-12T11:25:34.363Z,99.99
2017-10-12T11:26:46.610Z,99.99
2017-10-12T11:27:58.546Z,99.99
2017-10-12T11:29:10.474Z,99.99
2017-10-12T11:30:22.400Z,99.99
2017-10-12T11:31:34.665Z,99.99
2017-10-12T11:32:46.912Z,99.99
2017-10-12T11:33:59.481Z,99.99
2017-10-12T11:35:11.426Z,99.99
2017-10-12T11:36:23.698Z,99.99
2017-10-12T11:37:35.937Z,99.99
2017-10-12T11:38:47.868Z,99.99
2017-10-12T11:40:00.136Z,99.99
2017-10-12T11:41:12.422Z,99.99
2017-10-12T11:42:24.976Z,99.99
2017-10-12T11:43:37.546Z,99.99
2017-10-12T11:44:50.118Z,99.99
2017-10-12T11:46:02.405Z,99.99
2017-10-12T11:47:14.334Z,99.99
2017-10-12T11:48:26.254Z,99.99
2017-10-12T11:49:38.828Z,99.99
2017-10-12T11:50:51.088Z,99.99
2017-10-12T11:52:03.341Z,99.99
2017-10-12T11:53:15.911Z,99.99
2017-10-12T11:54:28.158Z,99.99
2017-10-12T11:55:40.409Z,99.99
2017-10-12T11:56:52.649Z,99.99
2017-10-12T11:58:04.912Z,99.99
2017-10-12T11:59:17.166Z,99.99
2017-10-12T12:00:29.744Z,99.99
2017-10-12T12:01:42.307Z,99.99
2017-10-12T12:02:54.553Z,99.99
2017-10-12T12:04:06.798Z,99.99
2017-10-12T12:05:18.723Z,99.99
2017-10-12T12:06:31.290Z,99.99
2017-10-12T12:07:43.552Z,99.99
2017-10-12T12:08:56.130Z,99.99
2017-10-12T12:10:08.075Z,99.99
2017-10-12T12:11:19.996Z,99.99
2017-10-12T12:12:32.568Z,98.91
2017-10-12T12:13:44.838Z,97.95
2017-10-12T12:14:56.785Z,99.19
2017-10-12T12:16:09.361Z,99.48
2017-10-12T12:17:21.604Z,97.85
2017-10-12T12:18:33.531Z,98.43
2017-10-12T12:19:45.766Z,99.77
2017-10-12T12:20:57.687Z,98.91
2017-10-12T12:22:10.283Z,97.95
2017-10-12T12:23:22.527Z,97.52
2017-10-12T12:24:35.100Z,97.61
2017-10-12T12:25:47.669Z,98.43
2017-10-12T12:26:59.917Z,98
2017-10-12T12:28:12.161Z,96.75
2017-10-12T12:29:24.430Z,96.18
2017-10-12T12:30:36.052Z,97.52
2017-10-12T12:31:48.624Z,96.75
2017-10-12T12:33:00.870Z,93.69
2017-10-12T12:34:12.492Z,95.31
2017-10-12T12:35:25.060Z,95.41
2017-10-12T12:36:37.331Z,94.93
2017-10-12T12:37:49.900Z,95.41
2017-10-12T12:39:02.489Z,94.21
2017-10-12T12:40:15.019Z,95.56
2017-10-12T12:41:27.589Z,95.84
2017-10-12T12:42:40.159Z,96.03
2017-10-12T12:43:52.428Z,95.36
2017-10-12T12:45:05.000Z,95.36
2017-10-12T12:46:17.274Z,95.75
2017-10-12T12:47:29.516Z,95.56
2017-10-12T12:48:41.761Z,94.98
2017-10-12T12:49:54.336Z,93.83
2017-10-12T12:51:06.608Z,94.89
2017-10-12T12:52:18.552Z,94.69
2017-10-12T12:53:31.145Z,95.07
2017-10-12T12:54:43.740Z,95.79
2017-10-12T12:55:55.990Z,95.7
2017-10-12T12:57:07.933Z,95.7
2017-10-12T12:58:20.195Z,95.89
2017-10-12T12:59:32.748Z,95.22
2017-10-12T13:00:44.994Z,95.31
2017-10-12T13:01:57.589Z,94.02
2017-10-12T13:03:09.510Z,94.74
2017-10-12T13:04:21.781Z,95.56
2017-10-12T13:05:34.050Z,95.22
2017-10-12T13:06:46.023Z,93.78
2017-10-12T13:07:58.266Z,93.21
2017-10-12T13:09:10.514Z,91.96
2017-10-12T13:10:22.760Z,93.3
2017-10-12T13:11:35.329Z,92.54
2017-10-12T13:12:47.603Z,93.98
2017-10-12T13:13:59.872Z,93.69
2017-10-12T13:15:12.117Z,94.74
2017-10-12T13:16:24.688Z,94.93
2017-10-12T13:17:37.275Z,95.12
2017-10-12T13:18:49.844Z,95.46
2017-10-12T13:20:02.100Z,95.94
2017-10-12T13:21:14.371Z,95.7
2017-10-12T13:22:26.614Z,95.79
2017-10-12T13:23:38.864Z,95.17
2017-10-12T13:24:51.432Z,95.17
2017-10-12T13:26:03.677Z,95.75
2017-10-12T13:27:15.922Z,96.42
2017-10-12T13:28:28.493Z,96.42
2017-10-12T13:29:40.443Z,96.7
2017-10-12T13:30:52.385Z,96.99
2017-10-12T13:32:04.975Z,97.28
2017-10-12T13:33:17.550Z,97.56
2017-10-12T13:34:30.120Z,96.61
2017-10-12T13:35:42.694Z,97.09
2017-10-12T13:36:55.263Z,97.18
2017-10-12T13:38:07.536Z,98.14
2017-10-12T13:39:20.105Z,98.14
2017-10-12T13:40:31.725Z,97.28
2017-10-12T13:41:44.307Z,98.14
2017-10-12T13:42:56.540Z,97.47
2017-10-12T13:44:08.789Z,97.95
2017-10-12T13:45:20.725Z,97.85
2017-10-12T13:46:32.653Z,98.05
2017-10-12T13:47:44.601Z,98.14
2017-10-12T13:48:56.844Z,98.14
2017-10-12T13:50:09.093Z,96.99
2017-10-12T13:51:21.661Z,97.09
2017-10-12T13:52:33.898Z,96.8
2017-10-12T13:53:46.157Z,96.42
2017-10-12T13:54:58.723Z,96.61
2017-10-12T13:56:10.994Z,95.75
2017-10-12T13:57:23.564Z,95.65
2017-10-12T13:58:36.135Z,95.65
2017-10-12T13:59:48.730Z,93.83
2017-10-12T14:01:01.300Z,94.12
2017-10-12T14:02:13.554Z,94.6
2017-10-12T14:03:26.118Z,94.89
2017-10-12T14:04:38.688Z,94.6
2017-10-12T14:05:50.611Z,93.83
2017-10-12T14:07:03.197Z,94.6
2017-10-12T14:08:15.775Z,94.31
2017-10-12T14:09:28.345Z,93.45
2017-10-12T14:10:40.610Z,94.12
2017-10-12T14:11:52.854Z,93.74
2017-10-12T14:13:04.483Z,94.31
2017-10-12T14:14:16.728Z,93.74
2017-10-12T14:15:28.973Z,94.21
2017-10-12T14:16:41.569Z,95.56
2017-10-12T14:17:54.067Z,94.98
2017-10-12T14:19:05.987Z,94.6
2017-10-12T14:20:18.581Z,93.93
2017-10-12T14:21:31.153Z,94.02
2017-10-12T14:22:43.723Z,94.02
2017-10-12T14:23:55.968Z,94.5
2017-10-12T14:25:07.914Z,94.4
2017-10-12T14:26:20.485Z,94.5
2017-10-12T14:27:33.056Z,94.12
2017-10-12T14:28:45.301Z,93.64
2017-10-12T14:29:57.873Z,93.74
2017-10-12T14:31:10.136Z,94.6
2017-10-12T14:32:22.393Z,95.17
2017-10-12T14:33:34.633Z,94.89
2017-10-12T14:34:46.254Z,95.94
2017-10-12T14:35:58.501Z,95.12
2017-10-12T14:37:10.445Z,94.74
2017-10-12T14:38:23.059Z,95.41
2017-10-12T14:39:35.315Z,95.41
2017-10-12T14:40:47.557Z,95.79
2017-10-12T14:42:00.131Z,95.89
2017-10-12T14:43:12.727Z,95.89
2017-10-12T14:44:24.969Z,95.89
2017-10-12T14:45:37.556Z,96.51
2017-10-12T14:46:49.485Z,97.08
2017-10-12T14:48:01.749Z,97.85
2017-10-12T14:49:13.676Z,99.1
2017-10-12T14:50:25.950Z,98.43
2017-10-12T14:51:38.518Z,98.52
2017-10-12T14:52:50.763Z,98.61
2017-10-12T14:54:03.010Z,98.43
2017-10-12T14:55:14.957Z,98.81
2017-10-12T14:56:26.893Z,98.81
2017-10-12T14:57:39.147Z,98.81
2017-10-12T14:58:51.392Z,98.81
2017-10-12T15:00:03.966Z,99.29
2017-10-12T15:01:16.559Z,99.76
2017-10-12T15:02:29.154Z,99.67
2017-10-12T15:03:41.400Z,99.71
2017-10-12T15:04:53.664Z,99.99
2017-10-12T15:06:06.233Z,99.99
2017-10-12T15:07:18.804Z,99.9
2017-10-12T15:08:31.375Z,99.9
2017-10-12T15:09:43.627Z,99.99
2017-10-12T15:10:55.899Z,99.81
2017-10-12T15:12:07.845Z,99.99
2017-10-12T15:13:20.094Z,99.99
2017-10-12T15:14:32.362Z,99.24
2017-10-12T15:15:44.613Z,98.95
2017-10-12T15:16:57.176Z,99.33
2017-10-12T15:18:09.423Z,99.81
2017-10-12T15:19:20.750Z,99.99
2017-10-12T15:20:33.365Z,99.99
2017-10-12T15:21:45.287Z,99.99
2017-10-12T15:22:57.856Z,99.99
2017-10-12T15:24:10.105Z,99.99
2017-10-12T15:25:22.346Z,99.99
2017-10-12T15:26:34.916Z,99.9
2017-10-12T15:27:46.838Z,99.99
2017-10-12T15:28:59.409Z,99.81
2017-10-12T15:30:11.980Z,99.99
2017-10-12T15:31:24.549Z,99.99
2017-10-12T15:32:36.798Z,99.99
2017-10-12T15:33:49.043Z,99.99